Terminal Aerodrome Forecast
Issued by NWS Jackson, KY

Home | Current Version | Previous Version | Text Only | Print | Product List | Glossary On
Versions: 1 2 3 4 5 6 7 8 9 10 11 12 13 14 15 16 17 18 19
000
FTUS43 KJKL 161136
TAFLOZ
TAF
KLOZ 161136Z 1612/1712 00000KT 1/4SM FG VV001
      TEMPO 1612/1613 4SM BR SCT010
     FM161300 VRB03KT P6SM FEW010 BKN040
     FM162000 VRB03KT P6SM VCTS BKN040CB
     FM170000 VRB03KT P6SM SCT040 BKN250=

USA.gov is the U.S. government's official web portal to all federal, state and local government web resources and services.